Time;durP1;ratioP1;P1;durP2;ratioP2;P2;SDS_P1;SDS_P2;PMS_P1;PMS_P2;Temp;Humidity;BMP_temperature;BMP_pressure;BME280_temperature;BME280_humidity;BME280_pressure;Samples;Min_cycle;Max_cycle;Signal;HPM_P1;HPM_P2
2022/06/09 00:00:24;;;;;;;;;;;13.20;99.90;;;;;;4965198;28;29084;-73
2022/06/09 00:02:53;;;;;;;;;;;13.20;99.90;;;;;;4964933;28;29141;-72
2022/06/09 00:05:21;;;;;;;;;;;13.20;99.90;;;;;;4967228;28;28093;-72
2022/06/09 00:07:49;;;;;;;;;;;13.20;99.90;;;;;;4977368;28;25194;-72
2022/06/09 00:10:18;;;;;;;;;;;13.10;99.90;;;;;;4978280;28;28159;-72
2022/06/09 00:12:47;;;;;;;;;;;13.00;99.90;;;;;;4978111;28;26099;-72
2022/06/09 00:15:16;;;;;;;;;;;12.90;99.90;;;;;;4968946;28;26067;-71
2022/06/09 00:17:43;;;;;;;;;;;12.80;99.90;;;;;;4972542;28;28211;-72
2022/06/09 00:20:10;;;;;;;;;;;12.70;99.90;;;;;;4979012;28;29070;-71
2022/06/09 00:22:37;;;;;;;;;;;12.60;99.90;;;;;;4978464;28;26108;-72
2022/06/09 00:25:04;;;;;;;;;;;12.60;99.90;;;;;;4977482;28;28066;-71
2022/06/09 00:27:31;;;;;;;;;;;12.50;99.90;;;;;;4977965;28;29215;-72
2022/06/09 00:29:57;;;;;;;;;;;12.40;99.90;;;;;;4971032;28;28061;-72
2022/06/09 00:32:24;;;;;;;;;;;12.40;99.90;;;;;;4974137;28;25130;-71
2022/06/09 00:34:51;;;;;;;;;;;12.30;99.90;;;;;;4972421;28;25135;-71
2022/06/09 00:37:17;;;;;;;;;;;12.30;99.90;;;;;;4972065;28;29072;-72
2022/06/09 00:39:50;;;;;;;;;;;12.40;99.90;;;;;;4975814;28;27113;-73
2022/06/09 00:42:17;;;;;;;;;;;12.40;99.90;;;;;;4978245;28;26070;-72
2022/06/09 00:44:44;;;;;;;;;;;12.40;99.90;;;;;;4977051;28;25058;-72
2022/06/09 00:47:22;;;;;;;;;;;12.40;99.90;;;;;;4977893;28;28069;-72
2022/06/09 00:49:57;;;;;;;;;;;12.30;99.90;;;;;;4976230;28;25138;-71
2022/06/09 00:52:27;;;;;;;;;;;12.20;99.90;;;;;;4972993;28;26069;-72
2022/06/09 00:55:00;;;;;;;;;;;12.20;99.90;;;;;;4967723;28;26122;-72
2022/06/09 00:57:34;;;;;;;;;;;12.10;99.90;;;;;;4967369;28;25070;-72
2022/06/09 01:00:08;;;;;;;;;;;12.00;99.90;;;;;;4969088;28;27257;-72
2022/06/09 01:02:36;;;;;;;;;;;11.90;99.90;;;;;;4977702;28;27162;-72
2022/06/09 01:05:05;;;;;;;;;;;11.90;99.90;;;;;;4976554;28;28053;-72
2022/06/09 01:07:36;;;;;;;;;;;11.80;99.90;;;;;;4977345;28;26113;-72
2022/06/09 01:10:03;;;;;;;;;;;11.80;99.90;;;;;;4976780;28;27194;-72
2022/06/09 01:12:31;;;;;;;;;;;11.70;99.90;;;;;;4963520;28;25060;-72
2022/06/09 01:15:04;;;;;;;;;;;11.60;99.90;;;;;;4971213;28;27086;-72
2022/06/09 01:17:42;;;;;;;;;;;11.50;99.90;;;;;;4972269;28;25076;-72
2022/06/09 01:20:30;;;;;;;;;;;11.40;99.90;;;;;;4975225;28;25118;-72
2022/06/09 01:22:59;;;;;;;;;;;11.30;99.90;;;;;;4976599;28;28244;-72
2022/06/09 01:25:26;;;;;;;;;;;11.20;99.90;;;;;;4975938;28;28104;-72
2022/06/09 01:27:55;;;;;;;;;;;11.10;99.90;;;;;;4974772;28;27134;-72
2022/06/09 01:30:42;;;;;;;;;;;11.10;99.90;;;;;;4969785;28;26060;-72
2022/06/09 01:33:18;;;;;;;;;;;11.00;99.90;;;;;;4964439;28;26110;-72
2022/06/09 01:35:51;;;;;;;;;;;11.00;99.90;;;;;;4976435;28;25091;-72
2022/06/09 01:38:18;;;;;;;;;;;10.90;99.90;;;;;;4976959;28;25068;-72
2022/06/09 01:40:44;;;;;;;;;;;10.80;99.90;;;;;;4976920;28;29083;-72
2022/06/09 01:43:11;;;;;;;;;;;10.80;99.90;;;;;;4974606;28;27126;-72
2022/06/09 01:45:49;;;;;;;;;;;10.70;99.90;;;;;;4976470;28;25122;-72
2022/06/09 01:48:17;;;;;;;;;;;10.70;99.90;;;;;;4961639;28;29085;-73
2022/06/09 01:50:46;;;;;;;;;;;10.60;99.90;;;;;;4964992;28;27067;-72
2022/06/09 01:53:25;;;;;;;;;;;10.60;99.90;;;;;;4974745;28;29093;-72
2022/06/09 01:55:56;;;;;;;;;;;10.60;99.90;;;;;;4971739;28;26153;-72
2022/06/09 01:58:25;;;;;;;;;;;10.60;99.90;;;;;;4966072;28;26100;-73
2022/06/09 02:00:53;;;;;;;;;;;10.50;99.90;;;;;;4972599;28;25074;-72
2022/06/09 02:03:24;;;;;;;;;;;10.50;99.90;;;;;;4973492;28;27083;-72
2022/06/09 02:05:53;;;;;;;;;;;10.50;99.90;;;;;;4971983;28;26069;-72
2022/06/09 02:08:22;;;;;;;;;;;10.50;99.90;;;;;;4972345;28;26156;-72
2022/06/09 02:10:53;;;;;;;;;;;10.60;99.90;;;;;;4975185;28;25076;-72
2022/06/09 02:13:23;;;;;;;;;;;10.50;99.90;;;;;;4963284;28;26168;-72
2022/06/09 02:15:54;;;;;;;;;;;10.50;99.90;;;;;;4965187;28;28056;-72
2022/06/09 02:18:23;;;;;;;;;;;10.50;99.90;;;;;;4974172;28;28163;-72
2022/06/09 02:20:58;;;;;;;;;;;10.40;99.90;;;;;;4974758;28;26185;-72
2022/06/09 02:23:25;;;;;;;;;;;10.40;99.90;;;;;;4974254;28;29105;-72
2022/06/09 02:25:52;;;;;;;;;;;10.30;99.90;;;;;;4963888;28;29070;-72
2022/06/09 02:28:18;;;;;;;;;;;10.30;99.90;;;;;;4965683;28;25047;-72
2022/06/09 02:30:45;;;;;;;;;;;10.20;99.90;;;;;;4973874;28;26080;-72
2022/06/09 02:33:16;;;;;;;;;;;10.20;99.90;;;;;;4973402;28;25059;-71
2022/06/09 02:35:46;;;;;;;;;;;10.30;99.90;;;;;;4973714;28;25081;-72
2022/06/09 02:38:13;;;;;;;;;;;10.20;99.90;;;;;;4974980;28;26113;-71
2022/06/09 02:40:42;;;;;;;;;;;10.20;99.90;;;;;;4975178;28;29083;-71
2022/06/09 02:43:09;;;;;;;;;;;10.10;99.90;;;;;;4967859;28;25072;-72
2022/06/09 02:45:37;;;;;;;;;;;10.10;99.90;;;;;;4960452;28;25187;-71
2022/06/09 02:48:03;;;;;;;;;;;10.10;99.90;;;;;;4971250;28;29083;-71
2022/06/09 02:50:30;;;;;;;;;;;10.10;99.90;;;;;;4975384;28;25223;-71
2022/06/09 02:52:57;;;;;;;;;;;10.10;99.90;;;;;;4972897;28;29203;-72
2022/06/09 02:55:24;;;;;;;;;;;10.10;99.90;;;;;;4971317;28;25146;-71
2022/06/09 02:57:51;;;;;;;;;;;10.10;99.90;;;;;;4972845;28;26058;-71
2022/06/09 03:00:18;;;;;;;;;;;10.10;99.90;;;;;;4973035;28;25110;-72
2022/06/09 03:02:55;;;;;;;;;;;10.20;99.90;;;;;;4967566;28;28101;-72
2022/06/09 03:05:22;;;;;;;;;;;10.10;99.90;;;;;;4972186;28;25089;-72
2022/06/09 03:07:50;;;;;;;;;;;10.10;99.90;;;;;;4972844;28;26058;-71
2022/06/09 03:10:16;;;;;;;;;;;10.10;99.90;;;;;;4963967;28;29084;-71
2022/06/09 03:12:43;;;;;;;;;;;10.10;99.90;;;;;;4970383;28;25071;-71
2022/06/09 03:15:11;;;;;;;;;;;10.10;99.90;;;;;;4971862;28;28109;-71
2022/06/09 03:17:38;;;;;;;;;;;10.10;99.90;;;;;;5002612;28;28065;-71
2022/06/09 03:20:06;;;;;;;;;;;10.10;99.90;;;;;;4971435;28;28210;-71
2022/06/09 03:22:33;;;;;;;;;;;10.10;99.90;;;;;;4973429;28;27154;-71
2022/06/09 03:25:00;;;;;;;;;;;10.10;99.90;;;;;;4973651;28;27145;-71
2022/06/09 03:27:27;;;;;;;;;;;10.20;99.90;;;;;;4974365;28;26069;-71
2022/06/09 03:29:54;;;;;;;;;;;10.10;99.90;;;;;;4968567;28;25076;-71
2022/06/09 03:32:22;;;;;;;;;;;10.10;99.90;;;;;;4976153;28;28173;-71
2022/06/09 03:34:49;;;;;;;;;;;10.10;99.90;;;;;;4972501;28;27134;-71
2022/06/09 03:37:16;;;;;;;;;;;10.10;99.90;;;;;;4968023;28;26137;-71
2022/06/09 03:39:43;;;;;;;;;;;10.10;99.90;;;;;;4977615;28;29166;-71
2022/06/09 03:42:10;;;;;;;;;;;10.10;99.90;;;;;;4961543;28;27097;-72
2022/06/09 03:44:36;;;;;;;;;;;10.00;99.90;;;;;;4961380;28;27116;-72
2022/06/09 03:47:05;;;;;;;;;;;9.90;99.90;;;;;;4965465;28;25071;-71
2022/06/09 03:49:32;;;;;;;;;;;9.80;99.90;;;;;;4978565;28;27117;-71
2022/06/09 03:51:59;;;;;;;;;;;9.80;99.90;;;;;;4974694;28;27085;-71
2022/06/09 03:54:25;;;;;;;;;;;9.80;99.90;;;;;;4972903;28;29135;-71
2022/06/09 03:56:52;;;;;;;;;;;9.80;99.90;;;;;;4974202;28;25090;-71
2022/06/09 03:59:19;;;;;;;;;;;9.80;99.90;;;;;;4962628;28;25117;-72
2022/06/09 04:01:45;;;;;;;;;;;9.90;99.90;;;;;;4971600;28;28121;-71
2022/06/09 04:04:12;;;;;;;;;;;9.90;99.90;;;;;;4968335;28;27004;-72
2022/06/09 04:06:41;;;;;;;;;;;10.00;99.90;;;;;;4969962;28;28061;-71
2022/06/09 04:09:08;;;;;;;;;;;10.10;99.90;;;;;;4971484;28;29075;-72
2022/06/09 04:11:35;;;;;;;;;;;10.10;99.90;;;;;;4974109;28;26814;-72
2022/06/09 04:14:02;;;;;;;;;;;10.20;99.90;;;;;;4973188;28;26061;-71
2022/06/09 04:16:31;;;;;;;;;;;10.20;99.90;;;;;;4974727;28;27114;-71
2022/06/09 04:18:59;;;;;;;;;;;10.30;99.90;;;;;;4964359;28;25066;-72
2022/06/09 04:21:32;;;;;;;;;;;10.40;99.90;;;;;;4972120;28;25074;-72
2022/06/09 04:24:00;;;;;;;;;;;10.50;99.90;;;;;;4974894;28;28138;-72
2022/06/09 04:26:31;;;;;;;;;;;10.60;99.90;;;;;;4973095;28;27141;-72
2022/06/09 04:28:58;;;;;;;;;;;10.70;99.90;;;;;;4967660;28;26099;-72
2022/06/09 04:31:24;;;;;;;;;;;10.80;99.90;;;;;;4974879;28;27083;-71
2022/06/09 04:33:51;;;;;;;;;;;10.90;99.90;;;;;;4967940;28;26089;-71
2022/06/09 04:36:19;;;;;;;;;;;11.00;99.90;;;;;;4969542;28;26210;-71
2022/06/09 04:38:46;;;;;;;;;;;11.10;99.90;;;;;;4973321;28;29078;-71
2022/06/09 04:41:13;;;;;;;;;;;11.10;99.90;;;;;;4976215;28;27167;-72
2022/06/09 04:43:41;;;;;;;;;;;12.00;99.90;;;;;;4976123;28;25059;-72
2022/06/09 04:46:12;;;;;;;;;;;13.30;99.90;;;;;;5053672;28;25135;-72
2022/06/09 04:48:39;;;;;;;;;;;14.70;99.90;;;;;;5069747;28;20310;-72
2022/06/09 04:51:07;;;;;;;;;;;15.70;99.90;;;;;;5069759;28;19925;-70
2022/06/09 04:53:39;;;;;;;;;;;16.80;99.90;;;;;;5060641;28;20367;-71
2022/06/09 04:56:06;;;;;;;;;;;17.80;99.90;;;;;;5066079;28;20383;-71
2022/06/09 04:58:33;;;;;;;;;;;18.90;99.90;;;;;;5061985;28;20066;-71
2022/06/09 05:01:00;;;;;;;;;;;19.80;99.90;;;;;;5061931;28;19932;-71
2022/06/09 05:03:26;;;;;;;;;;;20.70;99.90;;;;;;5067369;28;19932;-71
2022/06/09 05:05:53;;;;;;;;;;;21.30;99.90;;;;;;5066260;28;19928;-71
2022/06/09 05:08:20;;;;;;;;;;;22.00;99.90;;;;;;5068181;28;20011;-72
2022/06/09 05:10:46;;;;;;;;;;;22.60;99.90;;;;;;5062065;28;19947;-71
2022/06/09 05:13:14;;;;;;;;;;;23.10;99.90;;;;;;5068592;28;19928;-71
2022/06/09 05:15:48;;;;;;;;;;;23.50;99.90;;;;;;5062756;28;20061;-71
2022/06/09 05:18:15;;;;;;;;;;;24.00;99.90;;;;;;5071731;28;20028;-71
2022/06/09 05:20:42;;;;;;;;;;;24.40;99.90;;;;;;5064598;28;19925;-71
2022/06/09 05:23:09;;;;;;;;;;;24.50;99.90;;;;;;5070464;28;19954;-71
2022/06/09 05:25:36;;;;;;;;;;;24.20;99.90;;;;;;5067610;28;20023;-73
2022/06/09 05:28:03;;;;;;;;;;;24.40;99.90;;;;;;5070506;28;19928;-70
2022/06/09 05:30:29;;;;;;;;;;;24.50;99.90;;;;;;5069320;28;19930;-70
2022/06/09 05:32:56;;;;;;;;;;;24.90;99.90;;;;;;5061304;28;19924;-71
2022/06/09 05:35:23;;;;;;;;;;;24.90;99.90;;;;;;5069174;28;19925;-71
2022/06/09 05:46:06;;;;;;;;;;;24.90;99.90;;;;;;5062451;28;20444;-70
2022/06/09 05:48:36;;;;;;;;;;;25.30;99.90;;;;;;5065802;28;19924;-72
2022/06/09 05:51:03;;;;;;;;;;;25.40;99.90;;;;;;5066426;28;20511;-70
2022/06/09 05:53:29;;;;;;;;;;;25.30;99.90;;;;;;5064761;28;20401;-69
2022/06/09 05:55:56;;;;;;;;;;;25.40;99.90;;;;;;5067015;28;19955;-71
2022/06/09 05:58:23;;;;;;;;;;;25.20;99.90;;;;;;5062546;28;26055;-70
2022/06/09 06:00:49;;;;;;;;;;;24.90;99.90;;;;;;5003916;28;25143;-72
2022/06/09 06:03:16;;;;;;;;;;;24.50;99.90;;;;;;5057229;28;25066;-71
2022/06/09 06:08:40;;;;;;;;;;;24.50;99.90;;;;;;5062679;28;20284;-70
2022/06/09 06:11:07;;;;;;;;;;;24.50;99.90;;;;;;5061070;28;19925;-73
2022/06/09 06:13:34;;;;;;;;;;;25.20;99.90;;;;;;5064236;28;20480;-71
2022/06/09 06:16:00;;;;;;;;;;;25.80;99.90;;;;;;5061646;28;20337;-70
2022/06/09 06:18:45;;;;;;;;;;;26.20;99.90;;;;;;5058451;28;19935;-71
2022/06/09 06:21:12;;;;;;;;;;;25.90;99.90;;;;;;5052358;28;19931;-70
2022/06/09 06:23:40;;;;;;;;;;;25.30;99.90;;;;;;5061679;28;19931;-71
2022/06/09 06:26:07;;;;;;;;;;;24.30;99.90;;;;;;5067871;28;19939;-71
2022/06/09 06:28:34;;;;;;;;;;;23.20;99.90;;;;;;5061783;28;19924;-71
2022/06/09 06:31:00;;;;;;;;;;;22.20;99.90;;;;;;5058169;28;19925;-70
2022/06/09 06:33:27;;;;;;;;;;;22.10;99.90;;;;;;5064054;28;19928;-71
2022/06/09 06:35:54;;;;;;;;;;;22.80;99.90;;;;;;5061750;28;19924;-70
2022/06/09 06:38:20;;;;;;;;;;;23.60;99.90;;;;;;5062941;28;20256;-71
2022/06/09 06:40:47;;;;;;;;;;;24.00;99.90;;;;;;5052981;28;19947;-72
2022/06/09 06:43:14;;;;;;;;;;;24.90;99.90;;;;;;5061047;28;19928;-69
2022/06/09 06:45:41;;;;;;;;;;;25.50;99.90;;;;;;5060401;28;20527;-70
2022/06/09 06:48:14;;;;;;;;;;;26.20;99.90;;;;;;5065685;28;19925;-71
2022/06/09 06:50:41;;;;;;;;;;;26.60;99.90;;;;;;5062279;28;20043;-70
2022/06/09 06:53:12;;;;;;;;;;;26.60;99.90;;;;;;5057432;28;19925;-71
2022/06/09 06:55:39;;;;;;;;;;;25.50;99.90;;;;;;5059907;28;19931;-71
2022/06/09 06:58:06;;;;;;;;;;;24.10;99.90;;;;;;5065545;28;19928;-72
2022/06/09 07:00:34;;;;;;;;;;;22.90;99.90;;;;;;5063149;28;20043;-73
2022/06/09 07:03:02;;;;;;;;;;;22.40;99.90;;;;;;5071820;28;19968;-71
2022/06/09 07:05:57;;;;;;;;;;;22.40;99.90;;;;;;5072144;28;19930;-71
2022/06/09 07:08:24;;;;;;;;;;;23.30;99.90;;;;;;5066349;28;20023;-69
2022/06/09 07:10:52;;;;;;;;;;;23.90;99.90;;;;;;5072451;28;19925;-71
2022/06/09 07:13:19;;;;;;;;;;;24.20;99.90;;;;;;5073541;28;20301;-71
2022/06/09 07:15:45;;;;;;;;;;;24.40;99.90;;;;;;5069312;28;19924;-71
2022/06/09 07:18:12;;;;;;;;;;;25.10;99.90;;;;;;5058508;28;20008;-72
2022/06/09 07:20:39;;;;;;;;;;;25.50;99.90;;;;;;5060914;28;19963;-71
2022/06/09 07:23:06;;;;;;;;;;;24.70;99.90;;;;;;5066496;28;19963;-72
2022/06/09 07:25:33;;;;;;;;;;;23.60;99.90;;;;;;5066538;28;19932;-72
2022/06/09 07:28:00;;;;;;;;;;;23.10;99.90;;;;;;5072181;28;19924;-71
2022/06/09 07:30:27;;;;;;;;;;;22.50;99.90;;;;;;5073615;28;19925;-72
2022/06/09 07:32:54;;;;;;;;;;;22.10;99.90;;;;;;5071099;28;20536;-71
2022/06/09 07:35:22;;;;;;;;;;;21.80;99.90;;;;;;5062880;28;19925;-71
2022/06/09 07:37:49;;;;;;;;;;;21.40;99.90;;;;;;5072997;28;19931;-72
2022/06/09 07:40:15;;;;;;;;;;;21.30;99.90;;;;;;5070865;28;19932;-71
2022/06/09 07:42:42;;;;;;;;;;;20.90;99.90;;;;;;5064373;28;19954;-70
2022/06/09 07:45:09;;;;;;;;;;;20.40;99.90;;;;;;5066043;28;20402;-72
2022/06/09 07:47:37;;;;;;;;;;;19.90;99.90;;;;;;5070854;28;19935;-72
2022/06/09 07:50:05;;;;;;;;;;;19.70;99.90;;;;;;5072490;28;19964;-71
2022/06/09 07:52:36;;;;;;;;;;;19.50;99.90;;;;;;5074657;28;19936;-71
2022/06/09 07:55:03;;;;;;;;;;;19.30;99.90;;;;;;5072767;28;19930;-71
2022/06/09 07:57:30;;;;;;;;;;;19.20;99.90;;;;;;5065696;28;19931;-71
2022/06/09 07:59:56;;;;;;;;;;;18.80;99.90;;;;;;5067309;28;20509;-71
2022/06/09 08:02:23;;;;;;;;;;;18.50;99.90;;;;;;5073819;28;19969;-71
2022/06/09 08:04:50;;;;;;;;;;;18.20;99.90;;;;;;5072546;28;20402;-70
2022/06/09 08:07:16;;;;;;;;;;;18.00;99.90;;;;;;5074279;28;19990;-71
2022/06/09 08:09:43;;;;;;;;;;;17.80;99.90;;;;;;5074429;28;19931;-72
2022/06/09 08:12:10;;;;;;;;;;;17.80;99.90;;;;;;5074264;28;19925;-69
2022/06/09 08:14:39;;;;;;;;;;;17.80;99.90;;;;;;5074073;28;20004;-71
2022/06/09 08:17:06;;;;;;;;;;;17.90;99.90;;;;;;5073695;28;19929;-73
2022/06/09 08:19:35;;;;;;;;;;;18.20;99.90;;;;;;5072704;28;19960;-71
2022/06/09 08:22:02;;;;;;;;;;;18.50;99.90;;;;;;5074468;28;19924;-71
2022/06/09 08:24:33;;;;;;;;;;;19.00;99.90;;;;;;5073247;28;19924;-72
2022/06/09 08:27:00;;;;;;;;;;;19.30;99.90;;;;;;5074833;28;19925;-72
2022/06/09 08:29:27;;;;;;;;;;;19.70;99.90;;;;;;5089176;28;19924;-72
2022/06/09 08:31:54;;;;;;;;;;;20.10;99.90;;;;;;5074080;28;19930;-71
2022/06/09 08:34:21;;;;;;;;;;;20.30;99.90;;;;;;5056358;28;19925;-71
2022/06/09 08:36:47;;;;;;;;;;;20.20;99.90;;;;;;5073714;28;19929;-70
2022/06/09 08:39:14;;;;;;;;;;;20.40;99.90;;;;;;5073012;28;20019;-72
2022/06/09 08:41:46;;;;;;;;;;;20.20;99.90;;;;;;5065471;28;20306;-72
2022/06/09 08:44:28;;;;;;;;;;;20.00;99.90;;;;;;5071786;28;20023;-72
2022/06/09 08:47:01;;;;;;;;;;;19.30;99.90;;;;;;5070809;28;19947;-72
2022/06/09 08:49:46;;;;;;;;;;;18.70;99.90;;;;;;5072471;28;20022;-73
2022/06/09 08:52:22;;;;;;;;;;;18.40;99.90;;;;;;5073727;28;20500;-73
2022/06/09 08:54:50;;;;;;;;;;;18.30;99.90;;;;;;5072234;28;20466;-73
2022/06/09 08:57:17;;;;;;;;;;;18.40;99.90;;;;;;5056147;28;19931;-71
2022/06/09 08:59:49;;;;;;;;;;;18.80;99.90;;;;;;5072083;28;19930;-72
2022/06/09 09:02:28;;;;;;;;;;;19.30;99.90;;;;;;5071438;28;19931;-72
2022/06/09 09:05:01;;;;;;;;;;;19.60;99.90;;;;;;5071245;28;19925;-72
2022/06/09 09:07:31;;;;;;;;;;;19.90;99.90;;;;;;5071238;28;20504;-72
2022/06/09 09:10:00;;;;;;;;;;;20.30;99.90;;;;;;5072170;28;19924;-73
2022/06/09 09:12:30;;;;;;;;;;;20.40;99.90;;;;;;5071272;28;20020;-74
2022/06/09 09:15:12;;;;;;;;;;;20.40;99.90;;;;;;5072289;28;20007;-74
2022/06/09 09:17:58;;;;;;;;;;;20.20;99.90;;;;;;5072904;28;20020;-70
2022/06/09 09:20:28;;;;;;;;;;;20.30;99.90;;;;;;5072431;28;19931;-73
2022/06/09 09:23:01;;;;;;;;;;;20.40;99.90;;;;;;5072502;28;20379;-72
2022/06/09 09:25:40;;;;;;;;;;;20.60;99.90;;;;;;5054312;28;20514;-72
2022/06/09 09:28:18;;;;;;;;;;;20.90;99.90;;;;;;5053124;28;20371;-73
2022/06/09 09:30:54;;;;;;;;;;;21.10;99.90;;;;;;5053291;28;19964;-73
2022/06/09 09:33:21;;;;;;;;;;;21.10;99.90;;;;;;5061986;28;19930;-70
2022/06/09 09:35:48;;;;;;;;;;;21.80;99.90;;;;;;5072061;28;19925;-69
2022/06/09 09:38:17;;;;;;;;;;;23.10;99.90;;;;;;5072158;28;19970;-74
2022/06/09 09:40:48;;;;;;;;;;;23.90;99.90;;;;;;5071003;28;19924;-71
2022/06/09 09:43:35;;;;;;;;;;;24.80;99.90;;;;;;5072063;28;19928;-72
2022/06/09 09:46:02;;;;;;;;;;;24.90;99.90;;;;;;5071680;28;20371;-71
2022/06/09 09:48:41;;;;;;;;;;;25.30;99.90;;;;;;5070827;28;19924;-74
2022/06/09 09:51:12;;;;;;;;;;;25.20;99.90;;;;;;5071693;28;19930;-75
2022/06/09 09:53:39;;;;;;;;;;;25.30;99.90;;;;;;5071870;28;19972;-69
2022/06/09 09:56:15;;;;;;;;;;;25.50;99.90;;;;;;5071143;28;19928;-72
2022/06/09 09:58:48;;;;;;;;;;;25.30;99.90;;;;;;5061109;28;19932;-72
2022/06/09 10:08:35;;;;;;;;;;;24.90;99.90;;;;;;5053266;28;19920;-75
2022/06/09 10:10:37;;;;;;;;;;;24.80;99.90;;;;;;5068216;28;19965;-71
2022/06/09 10:13:13;;;;;;;;;;;24.10;99.90;;;;;;5072413;28;19924;-72
2022/06/09 10:15:57;;;;;;;;;;;24.00;99.90;;;;;;5072233;28;20317;-72
2022/06/09 10:18:47;;;;;;;;;;;23.70;99.90;;;;;;5077317;28;19935;-72
2022/06/09 10:22:07;;;;;;;;;;;23.20;99.90;;;;;;5075023;28;19942;-72
2022/06/09 10:24:45;;;;;;;;;;;23.50;99.90;;;;;;5049219;28;19967;-74
2022/06/09 10:27:16;;;;;;;;;;;23.40;99.90;;;;;;5050085;28;19931;-73
2022/06/09 10:29:46;;;;;;;;;;;23.50;99.90;;;;;;5049430;28;19932;-72
2022/06/09 10:32:33;;;;;;;;;;;23.50;99.90;;;;;;5048861;28;19929;-72
2022/06/09 10:35:03;;;;;;;;;;;23.50;99.90;;;;;;5048518;28;20011;-74
2022/06/09 10:37:37;;;;;;;;;;;23.60;99.90;;;;;;5048140;28;19925;-77
2022/06/09 10:40:28;;;;;;;;;;;23.90;99.90;;;;;;5043424;28;19971;-73
2022/06/09 10:42:57;;;;;;;;;;;24.60;99.90;;;;;;5040237;28;19936;-72
2022/06/09 10:45:27;;;;;;;;;;;24.40;99.90;;;;;;5034688;28;19931;-73
2022/06/09 10:56:49;;;;;;;;;;;24.60;99.90;;;;;;5043215;28;20280;-74
2022/06/09 10:59:25;;;;;;;;;;;24.60;99.90;;;;;;5057456;28;20457;-73
2022/06/09 11:01:51;;;;;;;;;;;24.50;99.90;;;;;;5068071;28;20380;-76
2022/06/09 11:04:18;;;;;;;;;;;24.40;99.90;;;;;;5071160;28;19934;-74
2022/06/09 11:07:01;;;;;;;;;;;24.60;99.90;;;;;;5058115;28;20272;-73
2022/06/09 11:09:39;;;;;;;;;;;24.90;99.90;;;;;;5055389;28;19931;-74
2022/06/09 11:12:24;;;;;;;;;;;25.20;99.90;;;;;;5071587;28;19924;-77
2022/06/09 11:15:00;;;;;;;;;;;25.80;99.90;;;;;;5070726;28;19960;-73
2022/06/09 11:17:32;;;;;;;;;;;25.60;99.90;;;;;;5059996;28;19928;-73
2022/06/09 11:20:13;;;;;;;;;;;25.30;99.90;;;;;;5064147;28;19982;-74
2022/06/09 11:22:48;;;;;;;;;;;25.50;99.90;;;;;;5071848;28;19924;-77
2022/06/09 11:25:27;;;;;;;;;;;25.40;99.90;;;;;;5051977;28;19925;-74
2022/06/09 11:28:03;;;;;;;;;;;24.90;99.90;;;;;;5055297;28;19939;-73
2022/06/09 11:30:39;;;;;;;;;;;25.10;99.90;;;;;;5071715;28;20026;-73
2022/06/09 11:33:29;;;;;;;;;;;25.00;99.90;;;;;;5071072;28;19925;-73
2022/06/09 11:35:58;;;;;;;;;;;24.50;99.90;;;;;;5071914;28;19924;-73
2022/06/09 11:38:41;;;;;;;;;;;24.30;99.90;;;;;;5072453;28;19943;-73
2022/06/09 11:41:14;;;;;;;;;;;24.40;99.90;;;;;;5070567;28;20019;-72
2022/06/09 11:44:05;;;;;;;;;;;24.30;99.90;;;;;;5070561;28;20268;-72
2022/06/09 11:46:34;;;;;;;;;;;24.10;99.90;;;;;;5070916;28;19978;-74
2022/06/09 11:49:03;;;;;;;;;;;23.90;99.90;;;;;;5073595;28;19924;-73
2022/06/09 11:51:31;;;;;;;;;;;23.70;99.90;;;;;;5074350;28;19924;-71
2022/06/09 11:54:00;;;;;;;;;;;23.50;99.90;;;;;;5073886;28;19924;-75
2022/06/09 11:56:43;;;;;;;;;;;23.50;99.90;;;;;;5073700;28;19954;-74
2022/06/09 11:59:12;;;;;;;;;;;23.40;99.90;;;;;;5075335;28;20340;-73
2022/06/09 12:01:43;;;;;;;;;;;23.60;99.90;;;;;;5073113;28;19924;-77
2022/06/09 12:04:15;;;;;;;;;;;23.90;99.90;;;;;;5074814;28;20110;-75
2022/06/09 12:06:59;;;;;;;;;;;24.40;99.90;;;;;;5074280;28;19931;-72
2022/06/09 12:09:44;;;;;;;;;;;24.50;99.90;;;;;;5074005;28;19924;-75
2022/06/09 12:12:31;;;;;;;;;;;24.70;99.90;;;;;;5074983;28;19924;-76
2022/06/09 12:15:21;;;;;;;;;;;24.70;99.90;;;;;;5072737;28;19968;-77
2022/06/09 12:18:08;;;;;;;;;;;24.50;99.90;;;;;;5063940;28;19925;-75
2022/06/09 12:20:40;;;;;;;;;;;24.60;99.90;;;;;;5074539;28;19972;-74
2022/06/09 12:23:21;;;;;;;;;;;24.70;99.90;;;;;;5074038;28;20437;-78
2022/06/09 12:26:06;;;;;;;;;;;24.90;99.90;;;;;;5074528;28;20372;-75
2022/06/09 12:28:42;;;;;;;;;;;25.40;99.90;;;;;;5074786;28;19924;-73
2022/06/09 12:31:09;;;;;;;;;;;24.90;99.90;;;;;;5073163;28;19931;-76
2022/06/09 12:33:38;;;;;;;;;;;24.50;99.90;;;;;;5069296;28;19940;-73
2022/06/09 12:36:09;;;;;;;;;;;24.30;99.90;;;;;;5064208;28;19929;-74
2022/06/09 12:38:38;;;;;;;;;;;24.50;99.90;;;;;;5066557;28;20368;-73
2022/06/09 12:41:10;;;;;;;;;;;24.90;99.90;;;;;;5074156;28;20278;-78
2022/06/09 12:43:38;;;;;;;;;;;24.80;99.90;;;;;;5072919;28;20023;-76
2022/06/09 12:46:17;;;;;;;;;;;24.80;99.90;;;;;;5074454;28;20341;-76
2022/06/09 12:48:44;;;;;;;;;;;24.80;99.90;;;;;;5073615;28;19932;-77
2022/06/09 12:51:16;;;;;;;;;;;25.40;99.90;;;;;;5074051;28;20325;-78
2022/06/09 12:54:05;;;;;;;;;;;25.50;99.90;;;;;;5071309;28;20437;-75
2022/06/09 12:56:51;;;;;;;;;;;25.30;99.90;;;;;;5055802;28;19931;-77
2022/06/09 12:59:22;;;;;;;;;;;25.10;99.90;;;;;;5074544;28;19931;-78
2022/06/09 13:01:57;;;;;;;;;;;24.40;99.90;;;;;;5073861;28;19924;-76
2022/06/09 13:04:26;;;;;;;;;;;24.00;99.90;;;;;;5073851;28;19925;-75
2022/06/09 13:06:53;;;;;;;;;;;23.50;99.90;;;;;;5088864;28;19932;-79
2022/06/09 13:09:22;;;;;;;;;;;22.90;99.90;;;;;;5074237;28;19924;-76
2022/06/09 13:15:36;;;;;;;;;;;21.20;99.90;;;;;;5071413;28;19931;-78
2022/06/09 13:18:21;;;;;;;;;;;20.30;99.90;;;;;;5071617;28;19977;-78
2022/06/09 13:20:58;;;;;;;;;;;19.60;99.90;;;;;;5070750;28;19931;-76
2022/06/09 13:23:26;;;;;;;;;;;19.10;99.90;;;;;;5071410;28;19925;-75
2022/06/09 13:25:52;;;;;;;;;;;18.90;99.90;;;;;;5070565;28;19983;-76
2022/06/09 13:28:33;;;;;;;;;;;18.90;99.90;;;;;;5069234;28;19931;-75
2022/06/09 13:31:01;;;;;;;;;;;19.30;99.90;;;;;;5070096;28;20015;-75
2022/06/09 13:33:33;;;;;;;;;;;20.00;99.90;;;;;;5069196;28;19924;-76
2022/06/09 13:36:18;;;;;;;;;;;21.00;99.90;;;;;;5070232;28;20333;-77
2022/06/09 13:38:47;;;;;;;;;;;21.80;99.90;;;;;;5069015;28;19966;-76
2022/06/09 13:41:14;;;;;;;;;;;22.70;99.90;;;;;;5070019;28;19924;-77
2022/06/09 13:43:48;;;;;;;;;;;22.90;99.90;;;;;;5068887;28;19978;-74
2022/06/09 13:46:21;;;;;;;;;;;23.70;99.90;;;;;;5069708;28;19925;-77
2022/06/09 13:48:56;;;;;;;;;;;24.10;99.90;;;;;;5067324;28;19954;-76
2022/06/09 13:51:26;;;;;;;;;;;23.60;99.90;;;;;;5059528;28;20433;-76
2022/06/09 13:54:17;;;;;;;;;;;23.90;99.90;;;;;;5065598;28;20306;-74
2022/06/09 13:56:44;;;;;;;;;;;24.70;99.90;;;;;;5071263;28;19932;-78
2022/06/09 13:59:11;;;;;;;;;;;25.10;99.90;;;;;;5072292;28;19930;-78
2022/06/09 14:01:37;;;;;;;;;;;24.90;99.90;;;;;;5072944;28;19924;-76
2022/06/09 14:04:09;;;;;;;;;;;25.30;99.90;;;;;;5072078;28;19928;-76
2022/06/09 14:06:35;;;;;;;;;;;26.20;99.90;;;;;;5072988;28;19954;-78
2022/06/09 14:09:03;;;;;;;;;;;26.60;99.90;;;;;;5058417;28;19932;-77
2022/06/09 14:11:31;;;;;;;;;;;26.30;99.90;;;;;;5069645;28;19925;-80
2022/06/09 14:14:17;;;;;;;;;;;26.90;99.90;;;;;;5071787;28;19924;-75
2022/06/09 14:16:45;;;;;;;;;;;27.60;99.90;;;;;;5052853;28;19979;-76
2022/06/09 14:19:13;;;;;;;;;;;28.40;99.90;;;;;;5052625;28;20272;-76
2022/06/09 14:21:39;;;;;;;;;;;28.70;99.90;;;;;;5068358;28;19924;-79
2022/06/09 14:24:12;;;;;;;;;;;29.20;99.90;;;;;;5070951;28;19928;-72
2022/06/09 14:26:40;;;;;;;;;;;29.70;99.20;;;;;;5068102;28;19932;-76
2022/06/09 14:29:07;;;;;;;;;;;30.10;98.80;;;;;;5070271;28;20409;-80
2022/06/09 14:31:34;;;;;;;;;;;30.10;98.50;;;;;;5069857;28;20352;-78
2022/06/09 14:34:01;;;;;;;;;;;30.30;99.90;;;;;;5064923;28;19967;-77
2022/06/09 14:36:28;;;;;;;;;;;30.60;99.90;;;;;;5064642;28;19924;-76
2022/06/09 14:38:56;;;;;;;;;;;30.70;99.90;;;;;;5064865;28;19929;-78
2022/06/09 14:41:23;;;;;;;;;;;29.90;99.90;;;;;;5071811;28;19925;-80
2022/06/09 14:43:50;;;;;;;;;;;28.70;99.90;;;;;;5071338;28;20043;-78
2022/06/09 14:46:23;;;;;;;;;;;27.60;99.90;;;;;;5052999;28;19956;-78
2022/06/09 14:48:50;;;;;;;;;;;27.00;99.90;;;;;;5068491;28;19931;-77
2022/06/09 14:51:17;;;;;;;;;;;27.40;99.90;;;;;;5068481;28;19928;-79
2022/06/09 14:53:44;;;;;;;;;;;28.40;99.10;;;;;;5067203;28;20011;-77
2022/06/09 14:56:13;;;;;;;;;;;29.30;98.30;;;;;;5072006;28;19924;-80
2022/06/09 14:58:40;;;;;;;;;;;30.10;97.80;;;;;;5072057;28;20443;-78
2022/06/09 15:01:07;;;;;;;;;;;30.20;95.80;;;;;;5072546;28;19928;-80
2022/06/09 15:03:33;;;;;;;;;;;30.60;95.20;;;;;;5071738;28;19924;-75
2022/06/09 15:06:01;;;;;;;;;;;30.30;95.00;;;;;;5071791;28;20029;-75